Eagle County Regional Airport
KEGE : now visible

Airfield :











YOU CAN JOIN US ON...

 
LOGIN :

Register | Disclaimer

   EN    FR    IT 

 









Legend :    VFR   Marginal VFR   IFR   Intensive IFR   Very Intensive IFR
Visi :
Ceiling :
>= 8 km
>= 3000ft
5 to 8 km
1000 to 3000 ft
1500m to 5 km
500 to 1000 ft
800 to 1500m
200 to 500 ft
< 800m
< 200 ft
Symbols :   Thunderstorms  Fog  Heavy snow  Heavy precipitations  Wind > 20 kt






- Airport Elevation : 6548 ft
- IATA code : EGE


KEGE - Eagle County Regional

CURRENT METAR :
  • 080909Z AUTO 09005KT 9SM -SN FEW008 BKN021 OVC037 M04/M05 A3013 RMK AO2 P0000 FZRANO

EXPIRED METARs :
  • 080856Z AUTO 11006KT 4SM -SN BR FEW008 BKN013 OVC021 M04/M05 A3012 RMK AO2 SLP111 P0000 60000 T10441050 53005 FZRANO
  • 080853Z AUTO 13006KT 3SM -SN BR FEW008 BKN012 OVC021 M04/M06 A3012 RMK AO2 P0000 FZRANO
  • 080820Z AUTO 09003KT 1 1/2SM -SN BR BKN014 BKN023 OVC034 M04/M06 A3010 RMK AO2 P0000 FZRANO
  • 080814Z AUTO 11004KT 1SM -SN BR SCT020 BKN026 OVC034 M04/M06 A3010 RMK AO2 P0000 FZRANO RVRNO
  • 080656Z AUTO 18004KT 10SM FEW060 M05/M07 A3008 RMK AO2 SNE24 SLP100 P0000 T10501067 FZRANO

TAF KEGE
Valid from the 08 at 06:00 until the 09 at 06:00 UTC


080536Z 0806/0906 VRB03KT 6SM -SHSN BR BKN060
FM080800 19007KT 1 1/2SM -SHSN BR OVC015
FM081000 23009KT 3SM -SHSN BR BKN040
FM081200 25009KT P6SM VCSH BKN045
FM090000 19005KT P6SM FEW250
KZDV FIR / North America



MET'MAP, your aeronautical weather chart ! - Copyright ORBIFLY December 2007 - Disclaimer

ORBIFLY MET'MAP TEAM :

Programming & Development : Alexandra Zaïnal
Original concept : Baudouin d'Aumeries
Technical & hardware support : Manuel Goepfert
Assistance : Marc-Olivier Méhu




SOURCES & CREDITS :

   NOAA       Earth
Advisory